Latest Weather Observations for Green Cape

IDN60801

Issued at 6:32 pm EST Thursday 26 May 2016 (issued every 30 minutes, with the page automatically refreshed every 10 minutes)

About weather observations | Map of weather stations | Latest weather observations for NSW | Other Formats
Station Details ID: 069137 Name: GREEN CAPE AWS Lat: -37.26 Lon: 150.05 Height: 19.4 m
Data from the previous 72 hours. | See also: Recent months at Green Cape
Date/Time
EST
Temp
°C
App
Temp
°C
Dew
Point
Rel
Hum
%
Delta-T
°C
Wind Press
QNH
hPa
Press
MSL
hPa
Rain
since 9 am
mm
Dir
 
Spd
km/h
Gust
km/h
Spd
kts
Gust
kts
26/06:30pm 12.3 6.0 9.1 81 1.6 WSW 32 39 17 21 999.1 999.1 4.2
26/06:00pm 12.3 7.2 9.1 81 1.6 W 26 35 14 19 999.2 999.2 4.2
26/05:30pm 12.9 6.5 9.4 79 1.8 WSW 33 41 18 22 998.9 998.9 4.2
26/05:00pm 12.8 7.9 10.0 83 1.4 SW 26 35 14 19 998.7 998.6 4.2
26/04:30pm 12.9 6.4 10.3 84 1.3 SW 35 41 19 22 998.6 998.5 4.2
26/04:00pm 12.7 6.7 10.1 84 1.3 SW 32 37 17 20 998.5 998.4 4.2
26/03:30pm 12.9 9.6 11.6 92 0.7 WSW 20 26 11 14 998.7 998.6 4.2
26/03:00pm 12.5 8.8 11.4 93 0.6 SSW 22 28 12 15 998.9 998.9 4.2
26/02:30pm 12.7 9.4 11.6 93 0.6 SSW 20 26 11 14 999.0 999.0 4.2
26/02:00pm 12.6 9.3 11.5 93 0.6 SSW 20 24 11 13 999.0 999.0 4.0
26/01:30pm 12.3 9.8 11.2 93 0.6 SW 15 19 8 10 999.7 999.7 3.6
26/01:00pm 12.6 9.4 11.2 91 0.7 W 19 24 10 13 1000.2 1000.2 3.0
26/12:30pm 13.1 12.5 11.7 91 0.7 NNW 6 7 3 4 1000.3 1000.3 2.0
26/12:00pm 12.8 11.8 11.0 89 0.9 N 7 11 4 6 1000.2 1000.2 1.8
26/11:30am 12.7 11.2 10.6 87 1.1 N 9 13 5 7 1000.7 1000.7 1.0
26/11:00am 12.8 11.6 10.2 84 1.3 NNW 7 13 4 7 1001.6 1001.6 0.6
26/10:30am 12.4 10.7 9.8 84 1.3 NNW 9 15 5 8 1002.3 1002.3 0.6
26/10:00am 12.4 10.2 9.2 81 1.6 NNW 11 13 6 7 1002.9 1002.9 0.2
26/09:30am 13.1 11.2 9.2 77 2.0 NW 9 13 5 7 1003.3 1003.3 0.0
26/09:00am 14.1 12.0 8.3 68 2.9 NW 9 13 5 7 1003.5 1003.5 0.0
26/08:30am 14.3 12.4 7.6 64 3.3 NW 7 13 4 7 1003.9 1003.9 0.0
26/08:00am 13.6 11.6 8.7 72 2.5 NW 9 13 5 7 1004.0 1004.0 0.0
26/07:30am 13.4 11.2 9.5 77 2.0 W 11 13 6 7 1004.3 1004.3 0.0
26/07:00am 13.4 11.5 8.9 74 2.3 WNW 9 11 5 6 1004.6 1004.6 0.0
26/06:30am 13.5 11.8 7.7 68 2.9 NNW 6 13 3 7 1004.8 1004.8 0.0
26/06:00am 13.6 12.4 8.0 69 2.8 NW 4 9 2 5 1005.0 1005.0 0.0
26/05:30am 13.1 12.1 9.0 76 2.1 WSW 4 7 2 4 1005.3 1005.3 0.0
26/05:00am 13.3 11.7 8.8 74 2.3 W 7 9 4 5 1005.6 1005.6 0.0
26/04:30am 13.3 10.6 5.5 59 3.7 NNW 9 13 5 7 1005.6 1005.6 0.0
26/04:00am 13.2 10.6 5.9 61 3.5 NNW 9 11 5 6 1005.9 1005.9 0.0
26/03:30am 13.1 11.7 9.0 76 2.1 WNW 6 13 3 7 1006.0 1006.0 0.0
26/03:00am 13.4 11.4 8.5 72 2.5 W 9 13 5 7 1006.5 1006.5 0.0
26/02:30am 13.3 11.4 7.7 69 2.8 W 7 9 4 5 1007.5 1007.5 0.0
26/02:00am 13.3 10.4 8.0 70 2.6 W 13 17 7 9 1007.9 1007.9 0.0
26/01:30am 13.4 10.8 7.8 69 2.8 WNW 11 17 6 9 1008.3 1008.3 0.0
26/01:00am 12.9 10.3 9.2 78 1.9 WNW 13 17 7 9 1008.8 1008.8 0.0
26/12:30am 12.7 8.7 9.0 78 1.9 W 20 24 11 13 1009.1 1009.1 0.0
26/12:00am 12.9 11.0 9.0 77 2.0 WNW 9 13 5 7 1009.6 1009.6 0.0
 
Date/Time
EST
Temp
°C
App
Temp
°C
Dew
Point
Rel
Hum
%
Delta-T
°C
Wind Press
QNH
hPa
Press
MSL
hPa
Rain
since 9 am
mm
Dir
 
Spd
km/h
Gust
km/h
Spd
kts
Gust
kts
25/11:30pm 13.2 10.4 8.7 74 2.3 WNW 13 17 7 9 1010.0 1010.0 0.0
25/11:00pm 12.9 9.7 8.6 75 2.2 NNW 15 20 8 11 1010.3 1010.3 0.0
25/10:30pm 14.6 11.7 8.3 66 3.2 N 13 24 7 13 1010.6 1010.6 0.0
25/10:00pm 14.7 11.8 8.2 65 3.3 N 13 17 7 9 1010.9 1010.9 0.0
25/09:30pm 15.0 11.4 8.5 65 3.3 N 17 20 9 11 1011.5 1011.5 0.0
25/09:00pm 15.2 12.3 8.0 62 3.6 NNW 13 20 7 11 1011.5 1011.5 0.0
25/08:30pm 14.9 11.9 7.9 63 3.5 NNW 13 20 7 11 1011.4 1011.4 0.0
25/08:00pm 14.1 12.3 7.9 66 3.1 N 7 11 4 6 1011.4 1011.4 0.0
25/07:30pm 14.4 12.2 7.7 64 3.3 N 9 13 5 7 1011.5 1011.5 0.0
25/07:00pm 14.0 11.3 7.3 64 3.3 N 11 13 6 7 1011.9 1011.9 0.0
25/06:30pm 13.7 11.9 7.9 68 2.9 N 7 9 4 5 1012.1 1012.1 0.0
25/06:00pm 14.3 12.2 8.3 67 3.0 N 9 15 5 8 1012.2 1012.2 0.0
25/05:30pm 14.2 11.5 7.5 64 3.3 NNW 11 15 6 8 1012.3 1012.3 0.0
25/05:00pm 14.2 12.3 7.7 65 3.2 N 7 11 4 6 1011.8 1011.8 0.0
25/04:30pm 14.6 12.6 8.8 68 2.9 N 9 15 5 8 1012.1 1012.1 0.0
25/04:00pm 15.0 12.0 9.1 68 3.0 N 15 17 8 9 1012.3 1012.3 0.0
25/03:30pm 14.9 12.2 8.8 67 3.1 N 13 19 7 10 1012.3 1012.3 0.0
25/03:00pm 15.2 12.7 8.2 63 3.5 N 11 15 6 8 1012.3 1012.3 0.0
25/02:30pm 16.0 14.3 8.5 61 3.8 NNE 7 11 4 6 1012.5 1012.5 0.0
25/02:00pm 16.7 14.4 8.9 60 4.0 N 11 17 6 9 1012.6 1012.6 0.0
25/01:30pm 17.2 15.4 7.0 51 5.1 NW 6 9 3 5 1012.8 1012.8 0.0
25/01:00pm 16.3 14.0 7.5 56 4.4 WSW 9 15 5 8 1013.1 1013.1 0.0
25/12:30pm 16.2 14.5 8.4 60 4.0 WSW 7 11 4 6 1013.3 1013.3 0.0
25/12:00pm 15.7 14.1 8.0 60 3.9 WNW 6 9 3 5 1014.1 1014.1 0.0
25/11:30am 15.2 12.3 8.2 63 3.5 W 13 19 7 10 1014.7 1014.7 0.0
25/11:00am 14.2 10.1 7.9 66 3.1 W 19 22 10 12 1015.1 1015.1 0.0
25/10:30am 13.9 10.6 8.1 68 2.9 W 15 19 8 10 1015.5 1015.5 0.0
25/10:00am 14.1 11.3 8.5 69 2.8 WNW 13 19 7 10 1015.6 1015.6 0.0
25/09:30am 13.4 9.7 8.0 70 2.7 W 17 22 9 12 1015.9 1015.9 0.0
25/09:00am 13.2 9.2 8.1 71 2.5 W 19 24 10 13 1016.1 1016.1 0.0
25/08:30am 12.8 7.1 8.3 74 2.2 SW 28 33 15 18 1015.8 1015.8 0.0
25/08:00am 12.6 6.8 8.1 74 2.2 W 28 43 15 23 1015.9 1015.9 0.0
25/07:30am 12.1 6.3 7.8 75 2.1 W 28 35 15 19 1016.2 1016.2 0.0
25/07:00am 12.1 6.7 7.8 75 2.1 W 26 32 14 17 1016.1 1016.1 0.0
25/06:30am 12.8 7.0 8.1 73 2.3 W 28 39 15 21 1016.0 1016.0 0.0
25/06:00am 12.9 5.8 8.0 72 2.4 W 35 43 19 23 1015.5 1015.5 0.0
25/05:30am 12.8 6.3 8.1 73 2.3 W 32 39 17 21 1015.1 1015.1 0.0
25/05:00am 12.7 6.1 7.8 72 2.4 W 32 41 17 22 1015.1 1015.1 0.0
25/04:30am 12.7 5.5 7.8 72 2.4 W 35 46 19 25 1014.9 1014.9 0.0
25/04:00am 12.7 4.7 7.6 71 2.5 W 39 46 21 25 1014.5 1014.5 0.0
25/03:30am 12.9 4.9 7.6 70 2.6 W 39 46 21 25 1014.6 1014.6 0.0
25/03:00am 13.0 3.9 6.8 66 3.0 W 44 54 24 29 1014.6 1014.6 0.0
25/02:30am 13.0 5.3 7.2 68 2.8 W 37 44 20 24 1014.9 1014.9 0.0
25/02:00am 13.1 5.5 7.5 69 2.7 W 37 48 20 26 1015.1 1015.1 0.0
25/01:30am 13.1 5.7 6.9 66 3.0 WSW 35 46 19 25 1015.1 1015.1 0.0
25/01:00am 13.6 5.6 7.6 67 2.9 WSW 39 48 21 26 1015.1 1015.1 0.0
25/12:30am 13.5 6.7 7.5 67 2.9 WSW 33 44 18 24 1015.5 1015.5 0.0
25/12:00am 13.7 7.8 7.7 67 3.0 WSW 28 35 15 19 1015.7 1015.7 0.0
 
Date/Time
EST
Temp
°C
App
Temp
°C
Dew
Point
Rel
Hum
%
Delta-T
°C
Wind Press
QNH
hPa
Press
MSL
hPa
Rain
since 9 am
mm
Dir
 
Spd
km/h
Gust
km/h
Spd
kts
Gust
kts
24/11:30pm 13.7 7.4 7.2 65 3.2 WSW 30 41 16 22 1016.1 1016.1 0.0
24/11:00pm 13.8 6.4 6.9 63 3.3 WSW 35 46 19 25 1015.9 1015.9 0.0
24/10:30pm 13.7 6.8 7.2 65 3.2 WSW 33 41 18 22 1015.7 1015.7 0.0
24/10:00pm 13.8 6.0 6.7 62 3.4 WSW 37 50 20 27 1015.7 1015.7 0.0
24/09:30pm 13.8 6.1 6.9 63 3.3 WSW 37 48 20 26 1015.4 1015.4 0.0
24/09:00pm 13.8 5.7 6.9 63 3.3 SW 39 50 21 27 1015.5 1015.5 0.0
24/08:30pm 13.9 6.0 7.9 67 3.0 SW 39 48 21 26 1015.4 1015.4 0.0
24/08:00pm 14.1 5.8 7.9 66 3.1 SW 41 50 22 27 1015.4 1015.4 0.0
24/07:53pm 13.8 5.9 7.8 67 3.0 SW 39 50 21 27 1015.5 1015.5 0.0
24/07:30pm 13.8 5.7 8.6 71 2.6 SW 41 50 22 27 1015.1 1015.1 0.0
24/07:00pm 14.0 4.8 7.8 66 3.1 SW 46 57 25 31 1015.0 1015.0 0.0
24/06:30pm 14.2 4.7 8.4 68 2.9 SW 48 59 26 32 1014.7 1014.7 0.0
24/06:00pm 14.2 5.6 8.2 67 3.0 WSW 43 57 23 31 1014.4 1014.4 0.0
24/05:48pm 14.2 5.7 8.4 68 2.9 WSW 43 61 23 33 1014.4 1014.4 0.0
24/05:30pm 14.3 5.5 8.0 66 3.1 SW 44 57 24 31 1014.0 1014.0 0.0
24/05:02pm 14.4 5.6 8.1 66 3.1 WSW 44 65 24 35 1013.9 1013.9 0.0
24/05:00pm 14.4 5.2 8.1 66 3.1 WSW 46 65 25 35 1013.9 1013.9 0.0
24/04:31pm 14.5 5.3 7.8 64 3.3 SW 46 67 25 36 1013.6 1013.6 0.0
24/04:30pm 14.5 5.6 7.8 64 3.3 SW 44 61 24 33 1013.7 1013.7 0.0
24/04:24pm 14.3 6.4 7.8 65 3.2 SW 39 57 21 31 1013.8 1013.8 0.0
24/04:00pm 15.0 6.3 7.8 62 3.6 SW 43 54 23 29 1013.9 1013.9 0.0
24/03:30pm 14.7 5.8 7.7 63 3.5 SW 44 56 24 30 1013.5 1013.5 0.0
24/03:00pm 14.6 3.8 7.6 63 3.5 WSW 54 82 29 44 1013.6 1013.6 0.0
24/02:54pm 14.6 4.1 7.2 61 3.6 SW 52 82 28 44 1013.4 1013.4 0.0
24/02:30pm 14.4 4.8 7.9 65 3.2 WSW 48 61 26 33 1013.5 1013.5 0.0
24/02:00pm 13.8 3.6 8.6 71 2.6 SW 52 63 28 34 1013.2 1013.2 0.0
24/01:30pm 13.6 2.7 8.7 72 2.5 SW 56 69 30 37 1013.4 1013.4 0.0
24/01:11pm 14.7 2.5 7.3 61 3.6 WSW 61 80 33 43 1013.0 1013.0 0.0
24/01:00pm 15.2 5.2 8.0 62 3.6 WSW 50 72 27 39 1013.1 1013.1 0.0
24/12:30pm 14.9 4.5 7.7 62 3.6 WSW 52 65 28 35 1013.4 1013.4 0.0
24/12:00pm 14.6 3.7 7.4 62 3.5 WSW 54 74 29 40 1013.8 1013.8 0.0
24/11:34am 14.7 5.6 8.6 67 3.1 WSW 46 67 25 36 1014.2 1014.2 0.0
24/11:30am 14.5 5.0 8.2 66 3.2 WSW 48 67 26 36 1014.2 1014.2 0.0
24/11:09am 15.4 6.6 7.4 59 4.0 WSW 43 65 23 35 1014.1 1014.1 0.0
24/11:00am 15.5 6.6 7.5 59 4.0 SW 44 57 24 31 1014.2 1014.2 0.0
24/10:30am 15.3 7.5 6.8 57 4.2 WSW 37 57 20 31 1014.6 1014.6 0.0
24/10:12am 15.1 5.3 7.2 59 3.9 WSW 48 69 26 37 1014.7 1014.7 0.0
24/10:07am 15.0 6.0 6.6 57 4.1 WSW 43 69 23 37 1014.5 1014.5 0.0
24/10:05am 15.0 6.9 6.8 58 4.0 WSW 39 61 21 33 1014.6 1014.6 0.0
24/10:00am 15.0 7.6 6.6 57 4.1 WSW 35 52 19 28 1014.8 1014.8 0.0
24/09:30am 14.4 6.7 5.5 55 4.2 W 35 54 19 29 1014.6 1014.6 0.0
24/09:11am 14.1 7.4 5.7 57 4.0 W 30 50 16 27 1014.8 1014.8 0.0
24/09:00am 14.0 7.4 5.9 58 3.8 W 30 44 16 24 1014.8 1014.8 0.8
24/08:30am 13.6 6.0 5.7 59 3.7 W 35 48 19 26 1014.7 1014.7 0.8
24/08:00am 13.2 5.9 5.4 59 3.6 W 33 52 18 28 1014.7 1014.7 0.8
24/07:56am 13.2 6.2 5.9 61 3.4 W 32 52 17 28 1014.7 1014.7 0.8
24/07:30am 12.8 6.1 5.5 61 3.4 W 30 44 16 24 1014.8 1014.8 0.8
24/07:00am 12.5 6.6 5.9 64 3.1 W 26 39 14 21 1014.7 1014.7 0.8
24/06:30am 12.5 6.7 6.3 66 2.9 W 26 37 14 20 1014.8 1014.8 0.8
24/06:00am 12.2 7.4 5.8 65 3.0 W 20 32 11 17 1014.7 1014.7 0.8
24/05:30am 12.2 8.2 6.5 68 2.7 W 17 26 9 14 1014.7 1014.7 0.8
24/05:00am 12.4 7.1 6.7 68 2.7 SW 24 32 13 17 1014.6 1014.6 0.8
24/04:30am 12.6 6.9 6.9 68 2.7 WSW 26 33 14 18 1014.8 1014.8 0.8
24/04:00am 12.4 7.7 6.2 66 2.9 SW 20 28 11 15 1014.8 1014.8 0.8
24/03:30am 12.5 7.6 7.0 69 2.6 WSW 22 35 12 19 1014.9 1014.9 0.8
24/03:00am 12.3 8.3 6.6 68 2.7 WSW 17 28 9 15 1015.1 1015.1 0.8
24/02:30am 12.5 6.1 6.8 68 2.7 WSW 30 39 16 21 1015.2 1015.2 0.8
24/02:00am 12.7 4.7 7.4 70 2.6 WSW 39 61 21 33 1015.0 1015.0 0.8
24/01:51am 12.6 4.1 7.1 69 2.7 WSW 41 61 22 33 1014.8 1014.8 0.8
24/01:30am 12.7 4.2 7.0 68 2.7 WSW 41 52 22 28 1014.9 1014.9 0.8
24/01:17am 12.8 4.1 7.5 70 2.6 WSW 43 61 23 33 1014.9 1014.9 0.8
24/01:00am 13.0 4.2 7.9 71 2.5 WSW 44 63 24 34 1014.8 1014.8 0.8
24/12:30am 12.7 3.9 7.2 69 2.7 WSW 43 57 23 31 1014.9 1014.9 0.8
24/12:00am 12.7 2.9 7.2 69 2.7 WSW 48 61 26 33 1014.9 1014.9 0.8
 
Date/Time
EST
Temp
°C
App
Temp
°C
Dew
Point
Rel
Hum
%
Delta-T
°C
Wind Press
QNH
hPa
Press
MSL
hPa
Rain
since 9 am
mm
Dir
 
Spd
km/h
Gust
km/h
Spd
kts
Gust
kts
23/11:49pm 12.7 3.0 7.4 70 2.6 WSW 48 67 26 36 1014.8 1014.8 0.8
23/11:30pm 12.4 4.0 7.5 72 2.4 W 41 52 22 28 1015.3 1015.3 0.8
23/11:00pm 12.7 2.6 7.6 71 2.5 WSW 50 61 27 33 1015.2 1015.2 0.8
23/10:30pm 12.7 3.7 7.4 70 2.6 W 44 65 24 35 1015.1 1015.1 0.6
23/10:08pm 13.0 4.1 7.7 70 2.6 WSW 44 65 24 35 1015.4 1015.4 0.6
23/10:00pm 13.1 4.3 7.1 67 2.9 WSW 43 52 23 28 1015.5 1015.5 0.6
23/09:30pm 13.6 3.1 7.2 65 3.1 WSW 52 70 28 38 1015.4 1015.4 0.6
23/09:15pm 13.6 5.3 6.0 60 3.6 WSW 39 67 21 36 1015.2 1015.2 0.6
23/09:00pm 13.8 6.5 5.4 57 3.9 SW 33 39 18 21 1015.1 1015.1 0.6
23/08:30pm 14.0 6.8 5.1 55 4.2 WSW 32 43 17 23 1015.0 1015.0 0.6
23/08:00pm 14.3 6.1 4.6 52 4.5 WSW 37 44 20 24 1014.7 1014.7 0.6
23/07:30pm 14.3 7.1 5.1 54 4.3 WSW 32 43 17 23 1014.5 1014.5 0.6
23/07:00pm 14.2 8.4 4.5 52 4.5 WSW 24 30 13 16 1014.4 1014.4 0.6

Other Formats:

Comma delimited format used in spreadsheet applications
http://www.bom.gov.au/fwo/IDN60801/IDN60801.94934.axf

JavaScript Object Notation format (JSON) in row-major order
http://www.bom.gov.au/fwo/IDN60801/IDN60801.94934.json